Reese River Valley, Nevada Weather observations

Data are for 10 minute period ending at time listed.
 Day   Time   Solar   Ave.   Ave.  Ave.  Vector  Max.   Baro.   Total    
  of    of     Rad.   Air    Rel.  Wind   Wind   Wind  Press.  Precip.   
Year   Day            Temp.  Hum.  Speed  Dir.   Gust                    
2016   (PST)  Kw/m2    F      %     mph   deg.    mph    mb.     in.     
-------------------------------------------------------------------------
 270    2:30   0.00   37.3    71    4.7   216     6.0   823.8    0.00 
 270    2:40   0.00   37.0    71    4.9   199     7.2   823.8    0.00 
 270    2:50   0.00   36.5    73    6.5   207     8.0   823.7    0.00 
 270    3:00   0.00   36.6    73    5.5   214     7.2   823.7    0.00 
 270    3:10   0.00   36.6    73    4.6   180     6.9   823.6    0.00 
 270    3:20   0.00   36.3    73    6.5   209     9.3   823.6    0.00 
 270    3:30   0.00   36.6    73    6.0   212     8.4   823.5    0.00 
 270    3:40   0.00   36.7    73    4.4   201     6.0   823.6    0.00 
 270    3:50   0.00   36.2    73    4.0   214     6.8   823.7    0.00 
 270    4:00   0.00   36.3    74    4.6   190     6.9   823.7    0.00 
 270    4:10   0.00   36.6    74    6.0   194     8.3   823.7    0.00 
 270    4:20   0.00   37.6    71    6.2   209     9.1   823.7    0.00 
 270    4:30   0.00   37.5    71    6.6   229     8.4   823.7    0.00 
 270    4:40   0.00   36.2    72    5.0   215     6.6   823.8    0.00 
 270    4:50   0.00   36.0    74    4.4   195     6.0   823.8    0.00 
 270    5:00   0.00   35.9    75    5.4   174     7.7   823.7    0.00 
 270    5:10   0.00   35.5    75    5.0   199     6.4   823.7    0.00 
 270    5:20   0.00   34.6    78    5.8   212     6.7   823.7    0.00 
 270    5:30   0.00   34.9    78    5.5   209     8.8   823.8    0.00 
 270    5:40   0.00   35.4    76    6.1   216     8.6   823.8    0.00 
 270    5:50   0.01   35.2    76    4.8   206     7.1   823.9    0.00 
 270    6:00   0.01   35.2    76    4.8   192     5.9   823.9    0.00 
 270    6:10   0.01   35.4    77    4.5   193     5.3   823.9    0.00 
 270    6:20   0.05   36.3    76    4.7   193     6.4   823.9    0.00 
 270    6:30   0.11   38.6    72    5.1   215     6.5   824.0    0.00 
 270    6:40   0.14   40.7    68    4.6   207     6.7   824.0    0.00 
 270    6:50   0.17   43.2    64    4.4   206     6.3   824.0    0.00 
 270    7:00   0.21   46.0    57    6.5   219     9.2   823.9    0.00 
 270    7:10   0.24   48.3    53    5.8   229     9.1   823.8    0.00 
 270    7:20   0.28   50.7    49    5.7   239     8.6   823.7    0.00 
 270    7:30   0.32   52.9    45    6.0   244     8.3   823.7    0.00 
 270    7:40   0.35   55.2    42    4.1   214     7.6   823.8    0.00 
 270    7:50   0.39   57.4    38    3.0   205     6.5   823.9    0.00 
 270    8:00   0.42   58.2    35    5.0   252     6.6   824.0    0.00 
 270    8:10   0.46   59.0    34    2.4   258     4.5   824.0    0.00 
 270    8:20   0.49   60.5    32    1.9   327     4.1   824.0    0.00 
 270    8:30   0.53   61.1    33    1.8    37     3.6   824.1    0.00 
 270    8:40   0.56   61.8    32    2.4    33     6.9   824.1    0.00 
 270    8:50   0.59   61.5    34    3.3    11     5.6   824.0    0.00 
 270    9:00   0.62   61.7    35    4.1    13     7.5   824.0    0.00 
 270    9:10   0.65   62.3    34    3.5    36     5.5   824.0    0.00 
 270    9:20   0.67   62.9    33    3.3    35     5.8   824.0    0.00 
 270    9:30   0.70   64.4    32    3.5    19     6.9   823.9    0.00 
 270    9:40   0.72   64.8    32    4.0    15     6.2   823.9    0.00 
 270    9:50   0.73   65.8    32    4.2    17     6.9   823.8    0.00 
 270   10:00   0.76   66.3    30    3.5    14     6.6   823.8    0.00 
 270   10:10   0.78   67.0    31    4.9    23     8.3   823.6    0.00 
 270   10:20   0.80   67.5    31    4.7    44     7.7   823.5    0.00 
 270   10:30   0.81   68.3    30    4.6    20     7.6   823.4    0.00 
 270   10:40   0.82   69.1    30    5.4    38     9.0   823.2    0.00 
 270   10:50   0.83   69.5    28    5.3    14     7.7   823.0    0.00 
 270   11:00   0.84   70.2    27    5.6    33    10.0   822.9    0.00 
 270   11:10   0.85   70.8    27    5.1    32    10.5   822.8    0.00 
 270   11:20   0.83   71.8    26    5.1    22     9.7   822.7    0.00 
 270   11:30   0.86   71.8    26    6.2    30     9.3   822.7    0.00 
 270   11:40   0.86   72.6    23    5.9     8     9.6   822.5    0.00 
 270   11:50   0.86   73.1    24    5.6    25    10.0   822.4    0.00 
 270   12:00   0.86   74.1    22    3.9    16     7.5   822.3    0.00 
 270   12:10   0.85   74.3    23    5.2    41     8.9   822.2    0.00 
 270   12:20   0.85   74.7    22    5.0    20     9.1   822.0    0.00 
 270   12:30   0.84   74.8    22    5.8    19    12.0   821.8    0.00 
 270   12:40   0.83   75.1    20    4.7   358     9.6   821.6    0.00 
 270   12:50   0.82   76.5    20    3.6    62     6.9   821.4    0.00 
 270   13:00   0.81   76.3    21    4.5    38    11.2   821.3    0.00 
 270   13:10   0.79   76.2    20    5.1     2    10.3   821.1    0.00 
 270   13:20   0.77   76.8    19    5.4   360    14.8   821.0    0.00 
 270   13:30   0.76   76.7    18    5.6     8    11.6   821.0    0.00 
 270   13:40   0.73   77.5    22    3.8    65     8.2   820.8    0.00 
 270   13:50   0.71   77.0    22    5.6    39     9.9   820.8    0.00 
 270   14:00   0.69   77.4    20    3.6   357     9.1   820.7    0.00 
 270   14:10   0.67   78.0    20    4.8    44    13.7   820.5    0.00 
 270   14:20   0.64   77.1    20    3.7    36     7.6   820.5    0.00 
 270   14:30   0.61   77.3    23    4.8    58    10.1   820.4    0.00 
 270   14:40   0.58   77.7    19    3.9    33     7.9   820.3    0.00 
 270   14:50   0.55   78.3    16    2.8   341     8.3   820.2    0.00 
 270   15:00   0.52   77.9    22    5.3    32     9.9   820.1    0.00 
 270   15:10   0.49   76.7    23    5.2    51     9.1   820.1    0.00 
 270   15:20   0.46   78.3    20    2.6    23     9.6   820.0    0.00 
 270   15:30   0.42   77.4    22    4.1    41     9.9   819.9    0.00 
 270   15:40   0.39   77.5    22    3.7    21     6.5   819.9    0.00 
 270   15:50   0.35   77.8    22    3.4    14     5.6   819.8    0.00 
 270   16:00   0.32   77.1    22    4.6    18     8.1   819.7    0.00 
 270   16:10   0.28   76.7    22    3.7     9     6.9   819.7    0.00 
 270   16:20   0.25   77.4    20    3.1   359     6.5   819.6    0.00 
 270   16:30   0.21   76.7    19    4.8   345     8.1   819.6    0.00 
 270   16:40   0.18   76.0    24    3.5    35     7.0   819.6    0.00 
 270   16:50   0.14   74.0    25    4.5    23     6.1   819.6    0.00 
 270   17:00   0.11   73.6    25    4.1    28     5.3   819.7    0.00 
 270   17:10   0.09   73.2    22    6.5   349    11.4   819.7    0.00 
 270   17:20   0.06   71.9    24    8.1   358    12.5   819.8    0.00 
 270   17:30   0.02   69.3    26    5.9   356     8.1   819.9    0.00 
 270   17:40   0.01   66.8    27    4.6   357     7.2   820.0    0.00 
 270   17:50   0.00   65.7    27    3.2   339     4.5   820.0    0.00 
 270   18:00   0.00   63.4    30    1.4    45     3.0   820.0    0.00 
 270   18:10   0.00   62.5    32    3.8    68     4.9   820.1    0.00 
 270   18:20   0.00   61.9    33    4.6    61     5.6   820.2    0.00 
 270   18:30   0.00   62.3    32    4.0    56     4.7   820.2    0.00 
 270   18:40   0.00   62.6    31    2.6    61     3.7   820.3    0.00 
 270   18:50   0.00   61.8    32    1.2    80     2.0   820.3    0.00 
 270   19:00   0.00   58.5    36    1.8   130     3.0   820.3    0.00 
 270   19:10   0.00   56.4    39    1.2   157     4.8   820.3    0.00 
 270   19:20   0.00   52.3    46    4.8   180     6.0   820.3    0.00 
 270   19:30   0.00   52.2    44    4.5   165     6.7   820.4    0.00 
 270   19:40   0.00   51.1    48    3.3   162     5.3   820.4    0.00 
 270   19:50   0.00   51.5    46    3.8   156     5.3   820.4    0.00 
 270   20:00   0.00   50.4    48    4.7   165     6.9   820.4    0.00 
 270   20:10   0.00   49.4    49    5.2   158     6.9   820.3    0.00 
 270   20:20   0.00   48.8    50    5.8   157     7.2   820.3    0.00 
 270   20:30   0.00   49.3    49    4.6   189     7.0   820.3    0.00 
 270   20:40   0.00   47.5    52    5.0   224     6.2   820.2    0.00 
 270   20:50   0.00   46.8    54    5.8   228     6.7   820.2    0.00 
 270   21:00   0.00   45.7    56    6.2   220     7.7   820.2    0.00 
 270   21:10   0.00   47.4    54    5.5   212     6.5   820.3    0.00 
 270   21:20   0.00   45.4    56    3.8   228     7.0   820.3    0.00 
 270   21:30   0.00   44.8    58    6.9   230     8.3   820.2    0.00 
 270   21:40   0.00   44.3    58    5.0   215     6.0   820.2    0.00 
 270   21:50   0.00   43.6    60    5.3   223     6.6   820.2    0.00 
 270   22:00   0.00   43.9    60    4.9   213     6.6   820.2    0.00 
 270   22:10   0.00   43.9    60    4.7   195     5.6   820.2    0.00 
 270   22:20   0.00   43.7    60    4.7   201     5.4   820.2    0.00 
 270   22:30   0.00   43.7    60    4.7   211     5.7   820.2    0.00 
 270   22:40   0.00   43.9    60    5.0   206     6.2   820.2    0.00 
 270   22:50   0.00   44.3    59    5.6   216     7.0   820.2    0.00 
 270   23:00   0.00   44.6    58    5.0   211     6.8   820.2    0.00 
 270   23:10   0.00   44.0    59    4.8   207     5.7   820.2    0.00 
 270   23:20   0.00   43.8    60    6.4   226     8.4   820.2    0.00 
 270   23:30   0.00   44.4    58    5.8   222     8.5   820.2    0.00 
 270   23:40   0.00   44.4    58    6.2   214     7.7   820.2    0.00 
 270   23:50   0.00   44.6    58    6.1   212     7.6   820.1    0.00 
 271    0:00   0.00   44.8    58    6.3   222     8.8   820.1    0.00 
 271    0:10   0.00   45.3    56    6.9   223     8.6   820.1    0.00 
 271    0:20   0.00   45.6    56    6.5   223     8.3   820.1    0.00 
 271    0:30   0.00   44.9    57    5.9   221     7.4   820.0    0.00 
 271    0:40   0.00   44.2    58    7.1   229     9.5   820.0    0.00 
 271    0:50   0.00   44.4    58    7.2   223     9.6   819.9    0.00 
 271    1:00   0.00   44.0    58    6.1   206     8.0   819.8    0.00 
 271    1:10   0.00   43.5    60    6.2   207     7.5   819.8    0.00 
 271    1:20   0.00   44.5    58    6.9   221     9.9   819.8    0.00 
 271    1:30   0.00   45.1    56    8.0   228    10.8   819.7    0.00 
 271    1:40   0.00   44.4    57    6.5   218     8.8   819.6    0.00 
 271    1:50   0.00   43.3    59    5.5   210     8.0   819.6    0.00 
 271    2:00   0.00   42.6    61    5.7   188     8.3   819.6    0.00 
 271    2:10   0.00   43.2    60    6.0   193     7.6   819.5    0.00 
 271    2:20   0.00   44.0    59    5.8   205     9.9   819.4    0.00 

Return to Reese River Valley graphs page.


Western Regional Climate Center,wrcc@dri.edu